| time (UTC) | temp F | wind direction | speed MPH | gust MPH | rain 1hr in | rain 24hr in | rain mn in | humidity % | barometer mb |
| 20260503215003 | 64 | 183 | 4.0 | 15.0 | 0.00 | 0.00 | 0.00 | 41 | 1015.7 |
| 20260503214503 | 65 | 205 | 3.0 | 7.0 | 0.00 | 0.00 | 0.00 | 42 | 1015.7 |
| 20260503214003 | 64 | 214 | 3.0 | 9.0 | 0.00 | 0.00 | 0.00 | 45 | 1015.5 |
| 20260503213503 | 64 | 190 | 4.0 | 11.0 | 0.00 | 0.00 | 0.00 | 41 | 1015.3 |
| 20260503213003 | 64 | 192 | 4.0 | 11.0 | 0.00 | 0.00 | 0.00 | 42 | 1015.4 |
| 20260503212524 | 64 | 218 | 4.0 | 12.0 | 0.00 | 0.00 | 0.00 | 38 | 1015.5 |
| 20260503212003 | 65 | 208 | 4.0 | 12.0 | 0.00 | 0.00 | 0.00 | 41 | 1015.7 |
| 20260503211503 | 65 | 194 | 4.0 | 12.0 | 0.00 | 0.00 | 0.00 | 42 | 1015.9 |
| 20260503211004 | 65 | 188 | 3.0 | 9.0 | 0.00 | 0.00 | 0.00 | 42 | 1015.9 |
| 20260503210504 | 65 | 197 | 3.0 | 9.0 | 0.00 | 0.00 | 0.00 | 42 | 1016.0 |
| 20260503210003 | 65 | 215 | 3.0 | 6.0 | 0.00 | 0.00 | 0.00 | 39 | 1015.9 |
| 20260503205503 | 64 | 189 | 4.0 | 11.0 | 0.00 | 0.00 | 0.00 | 39 | 1015.9 |
| 20260503205003 | 64 | 181 | 5.0 | 11.0 | 0.00 | 0.00 | 0.00 | 41 | 1016.0 |
| 20260503204503 | 64 | 195 | 4.0 | 12.0 | 0.00 | 0.00 | 0.00 | 38 | 1015.9 |
| 20260503204003 | 64 | 202 | 4.0 | 12.0 | 0.00 | 0.00 | 0.00 | 40 | 1016.1 |
| 20260503203503 | 64 | 197 | 4.0 | 12.0 | 0.00 | 0.00 | 0.00 | 40 | 1016.1 |
| 20260503203003 | 64 | 197 | 4.0 | 11.0 | 0.00 | 0.00 | 0.00 | 38 | 1016.3 |
| 20260503202503 | 64 | 194 | 5.0 | 11.0 | 0.00 | 0.00 | 0.00 | 39 | 1016.4 |
| 20260503202024 | 64 | 191 | 3.0 | 10.0 | 0.00 | 0.00 | 0.00 | 37 | 1016.6 |
| 20260503201503 | 65 | 202 | 3.0 | 8.0 | 0.00 | 0.00 | 0.00 | 42 | 1016.7 |
| 20260503201024 | 64 | 202 | 3.0 | 8.0 | 0.00 | 0.00 | 0.00 | 41 | 1016.9 |
| 20260503200503 | 64 | 202 | 4.0 | 10.0 | 0.00 | 0.00 | 0.00 | 42 | 1017.1 |
| 20260503200004 | 64 | 186 | 4.0 | 11.0 | 0.00 | 0.00 | 0.00 | 38 | 1017.4 |
| 20260503195503 | 64 | 165 | 5.0 | 11.0 | 0.00 | 0.00 | 0.00 | 41 | 1017.3 |
| 20260503195003 | 64 | 167 | 4.0 | 10.0 | 0.00 | 0.00 | 0.00 | 40 | 1017.4 |
| 20260503194503 | 64 | 191 | 2.0 | 8.0 | 0.00 | 0.00 | 0.00 | 41 | 1017.5 |
| 20260503194003 | 64 | 179 | 3.0 | 9.0 | 0.00 | 0.00 | 0.00 | 45 | 1017.5 |
| 20260503193503 | 63 | 185 | 4.0 | 9.0 | 0.00 | 0.00 | 0.00 | 40 | 1017.7 |
| 20260503193004 | 63 | 196 | 3.0 | 9.0 | 0.00 | 0.00 | 0.00 | 41 | 1017.8 |
| 20260503192525 | 63 | 163 | 5.0 | 13.0 | 0.00 | 0.00 | 0.00 | 43 | 1017.8 |
| 20260503192003 | 62 | 162 | 6.0 | 13.0 | 0.00 | 0.00 | 0.00 | 38 | 1017.9 |
| 20260503191503 | 63 | 178 | 3.0 | 12.0 | 0.00 | 0.00 | 0.00 | 37 | 1018.0 |
| 20260503191004 | 64 | 194 | 2.0 | 7.0 | 0.00 | 0.00 | 0.00 | 47 | 1018.1 |
| 20260503190503 | 63 | 202 | 2.0 | 5.0 | 0.00 | 0.00 | 0.00 | 43 | 1018.1 |
| 20260503190004 | 62 | 183 | 5.0 | 14.0 | 0.00 | 0.00 | 0.00 | 42 | 1018.3 |
| 20260503185525 | 62 | 168 | 6.0 | 14.0 | 0.00 | 0.00 | 0.00 | 43 | 1018.4 |
| 20260503185003 | 61 | 165 | 6.0 | 12.0 | 0.00 | 0.00 | 0.00 | 42 | 1018.3 |
| 20260503184504 | 62 | 158 | 5.0 | 12.0 | 0.00 | 0.00 | 0.00 | 41 | 1018.4 |
| 20260503184004 | 61 | 142 | 4.0 | 12.0 | 0.00 | 0.00 | 0.00 | 44 | 1018.5 |
| 20260503183504 | 61 | 150 | 4.0 | 12.0 | 0.00 | 0.00 | 0.00 | 38 | 1018.7 |
| 20260503183004 | 62 | 191 | 2.0 | 7.0 | 0.00 | 0.00 | 0.00 | 40 | 1018.7 |
| 20260503182504 | 62 | 174 | 3.0 | 11.0 | 0.00 | 0.00 | 0.00 | 48 | 1018.8 |
| 20260503182025 | 61 | 176 | 5.0 | 12.0 | 0.00 | 0.00 | 0.00 | 40 | 1018.8 |
| 20260503181505 | 62 | 182 | 4.0 | 12.0 | 0.00 | 0.00 | 0.00 | 39 | 1018.9 |
| 20260503181024 | 61 | 192 | 4.0 | 11.0 | 0.00 | 0.00 | 0.00 | 42 | 1018.9 |
| 20260503180503 | 61 | 191 | 4.0 | 10.0 | 0.00 | 0.00 | 0.00 | 42 | 1019.0 |
| 20260503180024 | 61 | 176 | 4.0 | 10.0 | 0.00 | 0.00 | 0.00 | 44 | 1019.0 |
| 20260503175503 | 60 | 183 | 4.0 | 10.0 | 0.00 | 0.00 | 0.00 | 41 | 1019.2 |
| 20260503175003 | 60 | 155 | 4.0 | 10.0 | 0.00 | 0.00 | 0.00 | 40 | 1019.3 |
| 20260503174504 | 60 | 152 | 4.0 | 10.0 | 0.00 | 0.00 | 0.00 | 42 | 1019.5 |
| 20260503174003 | 60 | 180 | 3.0 | 10.0 | 0.00 | 0.00 | 0.00 | 41 | 1019.5 |
| 20260503173524 | 60 | 172 | 4.0 | 13.0 | 0.00 | 0.00 | 0.00 | 42 | 1019.6 |
| 20260503173004 | 60 | 153 | 5.0 | 13.0 | 0.00 | 0.00 | 0.00 | 42 | 1019.7 |
| 20260503172525 | 59 | 147 | 5.0 | 13.0 | 0.00 | 0.00 | 0.00 | 42 | 1019.7 |
| 20260503172024 | 60 | 156 | 5.0 | 10.0 | 0.00 | 0.00 | 0.00 | 42 | 1019.7 |
| 20260503171503 | 60 | 157 | 4.0 | 9.0 | 0.00 | 0.00 | 0.00 | 39 | 1019.8 |
| 20260503171024 | 60 | 160 | 3.0 | 8.0 | 0.00 | 0.00 | 0.00 | 47 | 1019.8 |
| 20260503170503 | 59 | 167 | 3.0 | 10.0 | 0.00 | 0.00 | 0.00 | 38 | 1020.0 |
| 20260503150503 | 58 | 187 | 2.0 | 9.0 | 0.00 | 0.00 | 0.00 | 53 | 1021.0 |
| 20260503131003 | 47 | 169 | 3.0 | 6.0 | 0.00 | 0.00 | 0.00 | 74 | 1021.1 |
| 20260503130503 | 47 | 170 | 3.0 | 6.0 | 0.00 | 0.00 | 0.00 | 74 | 1021.0 |
| 20260503110504 | 30 | 0 | 0.0 | 0.0 | 0.00 | 0.00 | 0.00 | 92 | 1020.4 |
| 20260503081503 | 32 | 0 | 0.0 | 0.0 | 0.00 | 0.00 | 0.00 | 89 | 1019.6 |
| 20260503081003 | 32 | 0 | 0.0 | 0.0 | 0.00 | 0.00 | 0.00 | 89 | 1019.6 |
| 20260503080503 | 32 | 0 | 0.0 | 0.0 | 0.00 | 0.00 | 0.00 | 89 | 1019.5 |
| 20260503072503 | 33 | 0 | 0.0 | 0.0 | 0.00 | 0.00 | 0.00 | 87 | 1019.4 |
| 20260503072003 | 33 | 0 | 0.0 | 0.0 | 0.00 | 0.00 | 0.00 | 86 | 1019.3 |
| 20260503071503 | 34 | 0 | 0.0 | 0.0 | 0.00 | 0.00 | 0.00 | 86 | 1019.3 |
| 20260503071003 | 34 | 0 | 0.0 | 0.0 | 0.00 | 0.00 | 0.00 | 86 | 1019.3 |
| 20260503070524 | 34 | 0 | 0.0 | 0.0 | 0.00 | 0.00 | 0.00 | 87 | 1019.3 |
| 20260503055003 | 39 | 0 | 0.0 | 0.0 | 0.00 | 0.00 | 0.00 | 80 | 1019.5 |
| 20260503054503 | 39 | 0 | 0.0 | 0.0 | 0.00 | 0.00 | 0.00 | 80 | 1019.5 |
| 20260503054003 | 40 | 0 | 0.0 | 0.0 | 0.00 | 0.00 | 0.00 | 79 | 1019.5 |
| 20260503053503 | 40 | 0 | 0.0 | 0.0 | 0.00 | 0.00 | 0.00 | 79 | 1019.5 |
| 20260503053003 | 40 | 0 | 0.0 | 0.0 | 0.00 | 0.00 | 0.00 | 78 | 1019.5 |
| 20260503052503 | 41 | 0 | 0.0 | 0.0 | 0.00 | 0.00 | 0.00 | 78 | 1019.5 |
| 20260503052024 | 41 | 0 | 0.0 | 0.0 | 0.00 | 0.00 | 0.00 | 77 | 1019.5 |
| 20260503051504 | 41 | 0 | 0.0 | 0.0 | 0.00 | 0.00 | 0.00 | 77 | 1019.4 |
| 20260503051003 | 41 | 311 | 0.0 | 1.0 | 0.00 | 0.00 | 0.00 | 77 | 1019.3 |
| 20260503050503 | 41 | 311 | 0.0 | 1.0 | 0.00 | 0.00 | 0.00 | 77 | 1019.4 |
| 20260503050003 | 41 | 332 | 0.0 | 1.0 | 0.00 | 0.00 | 0.00 | 78 | 1019.4 |
| 20260503045524 | 41 | 332 | 0.0 | 1.0 | 0.00 | 0.00 | 0.00 | 78 | 1019.4 |
| 20260503045003 | 41 | 0 | 0.0 | 0.0 | 0.00 | 0.00 | 0.00 | 79 | 1019.3 |
| 20260503044524 | 41 | 322 | 0.0 | 1.0 | 0.00 | 0.00 | 0.00 | 80 | 1019.3 |
| 20260503044003 | 41 | 322 | 0.0 | 1.0 | 0.00 | 0.00 | 0.00 | 80 | 1019.4 |
| 20260503043503 | 41 | 0 | 0.0 | 0.0 | 0.00 | 0.00 | 0.00 | 80 | 1019.3 |
| 20260503043025 | 41 | 0 | 0.0 | 0.0 | 0.00 | 0.00 | 0.00 | 80 | 1019.3 |
| 20260503042524 | 42 | 0 | 0.0 | 0.0 | 0.00 | 0.00 | 0.00 | 79 | 1019.3 |
| 20260503042003 | 42 | 0 | 0.0 | 0.0 | 0.00 | 0.00 | 0.00 | 78 | 1019.2 |
| 20260503041524 | 43 | 0 | 0.0 | 0.0 | 0.00 | 0.00 | 0.00 | 78 | 1019.2 |
| 20260503041003 | 43 | 0 | 0.0 | 0.0 | 0.00 | 0.00 | 0.00 | 77 | 1019.2 |
| 20260503040503 | 44 | 0 | 0.0 | 0.0 | 0.00 | 0.00 | 0.00 | 77 | 1019.2 |
| 20260503040004 | 44 | 0 | 0.0 | 0.0 | 0.00 | 0.00 | 0.00 | 76 | 1019.1 |
| 20260503035524 | 45 | 294 | 0.0 | 1.0 | 0.00 | 0.00 | 0.00 | 76 | 1019.1 |
| 20260503035003 | 45 | 294 | 0.0 | 1.0 | 0.00 | 0.00 | 0.00 | 76 | 1019.0 |
| 20260503034524 | 45 | 294 | 0.0 | 1.0 | 0.00 | 0.00 | 0.00 | 76 | 1019.0 |
| 20260503034003 | 46 | 294 | 0.0 | 1.0 | 0.00 | 0.00 | 0.00 | 76 | 1019.0 |
| 20260503033524 | 46 | 287 | 0.0 | 1.0 | 0.00 | 0.00 | 0.00 | 76 | 1019.0 |
| 20260503033004 | 46 | 284 | 0.0 | 1.0 | 0.00 | 0.00 | 0.00 | 76 | 1019.1 |
| 20260503032503 | 46 | 284 | 0.0 | 1.0 | 0.00 | 0.00 | 0.00 | 78 | 1019.0 |
| 20260503032024 | 46 | 0 | 0.0 | 0.0 | 0.00 | 0.00 | 0.00 | 79 | 1018.9 |
| 20260503031503 | 46 | 305 | 0.0 | 1.0 | 0.00 | 0.00 | 0.00 | 79 | 1018.8 |
| 20260503031003 | 46 | 307 | 0.0 | 2.0 | 0.00 | 0.00 | 0.00 | 79 | 1018.8 |
| 20260503030504 | 45 | 305 | 0.0 | 3.0 | 0.00 | 0.00 | 0.00 | 81 | 1018.7 |
| 20260503030004 | 45 | 304 | 0.0 | 3.0 | 0.00 | 0.00 | 0.00 | 83 | 1018.7 |
| 20260503025503 | 45 | 0 | 0.0 | 0.0 | 0.00 | 0.00 | 0.00 | 87 | 1018.7 |
| 20260503025003 | 45 | 0 | 0.0 | 0.0 | 0.00 | 0.00 | 0.00 | 87 | 1018.6 |
| 20260503024503 | 44 | 0 | 0.0 | 0.0 | 0.00 | 0.00 | 0.00 | 87 | 1018.6 |
| 20260503024003 | 45 | 0 | 0.0 | 0.0 | 0.00 | 0.00 | 0.00 | 87 | 1018.5 |
| 20260503023504 | 44 | 0 | 0.0 | 0.0 | 0.00 | 0.00 | 0.00 | 87 | 1018.5 |
| 20260503023024 | 45 | 0 | 0.0 | 0.0 | 0.00 | 0.00 | 0.00 | 86 | 1018.5 |
| 20260503022524 | 44 | 0 | 0.0 | 0.0 | 0.00 | 0.00 | 0.00 | 86 | 1018.4 |
| 20260503022003 | 44 | 0 | 0.0 | 0.0 | 0.00 | 0.00 | 0.00 | 86 | 1018.4 |
| 20260503021503 | 44 | 0 | 0.0 | 0.0 | 0.00 | 0.00 | 0.00 | 86 | 1018.3 |
| 20260503021025 | 44 | 0 | 0.0 | 0.0 | 0.00 | 0.00 | 0.00 | 85 | 1018.3 |
| 20260503020503 | 44 | 0 | 0.0 | 0.0 | 0.00 | 0.00 | 0.00 | 85 | 1018.3 |
| 20260503020003 | 44 | 0 | 0.0 | 0.0 | 0.00 | 0.00 | 0.00 | 83 | 1018.2 |
| 20260503015503 | 44 | 0 | 0.0 | 0.0 | 0.00 | 0.00 | 0.00 | 82 | 1018.1 |
| 20260503015004 | 44 | 0 | 0.0 | 0.0 | 0.00 | 0.00 | 0.00 | 82 | 1018.0 |
| 20260503014504 | 44 | 0 | 0.0 | 0.0 | 0.00 | 0.00 | 0.00 | 83 | 1018.0 |
| 20260503014003 | 45 | 0 | 0.0 | 0.0 | 0.00 | 0.00 | 0.00 | 83 | 1018.0 |
| 20260503013503 | 45 | 0 | 0.0 | 0.0 | 0.00 | 0.00 | 0.00 | 82 | 1018.0 |
| 20260503013003 | 45 | 0 | 0.0 | 0.0 | 0.00 | 0.00 | 0.00 | 80 | 1018.0 |
| 20260503012503 | 46 | 0 | 0.0 | 0.0 | 0.00 | 0.00 | 0.00 | 80 | 1017.9 |
| 20260503012004 | 46 | 0 | 0.0 | 0.0 | 0.00 | 0.00 | 0.00 | 80 | 1017.8 |
| 20260503011503 | 46 | 0 | 0.0 | 0.0 | 0.00 | 0.00 | 0.00 | 80 | 1017.8 |
| 20260503011003 | 46 | 0 | 0.0 | 0.0 | 0.00 | 0.00 | 0.00 | 79 | 1017.7 |
| 20260503010503 | 47 | 0 | 0.0 | 0.0 | 0.00 | 0.00 | 0.00 | 79 | 1017.6 |
| 20260503010003 | 47 | 0 | 0.0 | 0.0 | 0.00 | 0.00 | 0.00 | 78 | 1017.6 |
| 20260503005503 | 47 | 0 | 0.0 | 0.0 | 0.00 | 0.00 | 0.00 | 76 | 1017.6 |
| 20260503005003 | 47 | 0 | 0.0 | 0.0 | 0.00 | 0.00 | 0.00 | 75 | 1017.5 |
| 20260503004503 | 47 | 0 | 0.0 | 0.0 | 0.00 | 0.00 | 0.00 | 75 | 1017.5 |
| 20260503004003 | 48 | 0 | 0.0 | 0.0 | 0.00 | 0.00 | 0.00 | 74 | 1017.4 |
| 20260503003503 | 48 | 0 | 0.0 | 0.0 | 0.00 | 0.00 | 0.00 | 74 | 1017.4 |
| 20260503003025 | 48 | 0 | 0.0 | 0.0 | 0.00 | 0.00 | 0.00 | 73 | 1017.3 |
| 20260503002504 | 48 | 0 | 0.0 | 0.0 | 0.00 | 0.00 | 0.00 | 71 | 1017.3 |
| 20260503002003 | 49 | 0 | 0.0 | 0.0 | 0.00 | 0.00 | 0.00 | 71 | 1017.3 |
| 20260503001503 | 49 | 0 | 0.0 | 0.0 | 0.00 | 0.00 | 0.00 | 68 | 1017.2 |
| 20260503001003 | 50 | 0 | 0.0 | 0.0 | 0.00 | 0.00 | 0.00 | 68 | 1017.1 |
| 20260503000524 | 50 | 0 | 0.0 | 0.0 | 0.00 | 0.00 | 0.00 | 67 | 1017.1 |
| 20260503000003 | 51 | 0 | 0.0 | 0.0 | 0.00 | 0.00 | 0.00 | 66 | 1016.9 |
| 20260502235503 | 51 | 0 | 0.0 | 0.0 | 0.00 | 0.00 | 0.00 | 65 | 1016.9 |
| 20260502235003 | 52 | 0 | 0.0 | 0.0 | 0.00 | 0.00 | 0.00 | 64 | 1016.9 |
| 20260502234503 | 52 | 0 | 0.0 | 0.0 | 0.00 | 0.00 | 0.00 | 63 | 1016.8 |
| 20260502234003 | 52 | 0 | 0.0 | 0.0 | 0.00 | 0.00 | 0.00 | 62 | 1016.8 |
| 20260502233503 | 52 | 304 | 0.0 | 1.0 | 0.00 | 0.00 | 0.00 | 65 | 1016.7 |
| 20260502233025 | 52 | 303 | 0.0 | 1.0 | 0.00 | 0.00 | 0.00 | 61 | 1016.8 |
| 20260502232503 | 52 | 308 | 0.0 | 1.0 | 0.00 | 0.00 | 0.00 | 61 | 1016.8 |
| 20260502232024 | 52 | 315 | 0.0 | 1.0 | 0.00 | 0.00 | 0.00 | 62 | 1016.8 |
| 20260502231524 | 52 | 325 | 0.0 | 2.0 | 0.00 | 0.00 | 0.00 | 60 | 1016.8 |
| 20260502231003 | 52 | 308 | 1.0 | 3.0 | 0.00 | 0.00 | 0.00 | 59 | 1016.9 |
| 20260502230504 | 53 | 318 | 2.0 | 5.0 | 0.00 | 0.00 | 0.00 | 60 | 1016.8 |
| 20260502230004 | 53 | 355 | 2.0 | 6.0 | 0.00 | 0.00 | 0.00 | 58 | 1016.8 |
| 20260502225524 | 53 | 360 | 2.0 | 6.0 | 0.00 | 0.00 | 0.00 | 59 | 1016.7 |
| 20260502225003 | 53 | 331 | 2.0 | 8.0 | 0.00 | 0.00 | 0.00 | 58 | 1016.8 |
| 20260502224503 | 53 | 356 | 3.0 | 8.0 | 0.00 | 0.00 | 0.00 | 60 | 1016.7 |
| 20260502224003 | 54 | 7 | 2.0 | 7.0 | 0.00 | 0.00 | 0.00 | 57 | 1016.8 |
| 20260502223503 | 54 | 347 | 1.0 | 5.0 | 0.00 | 0.00 | 0.00 | 59 | 1016.8 |
| 20260502223003 | 54 | 303 | 1.0 | 3.0 | 0.00 | 0.00 | 0.00 | 60 | 1016.8 |
| 20260502222504 | 54 | 314 | 1.0 | 4.0 | 0.00 | 0.00 | 0.00 | 62 | 1016.8 |
| 20260502222003 | 54 | 329 | 2.0 | 5.0 | 0.00 | 0.00 | 0.00 | 57 | 1016.9 |
| 20260502221504 | 54 | 325 | 1.0 | 5.0 | 0.00 | 0.00 | 0.00 | 59 | 1016.8 |
| 20260502221003 | 54 | 311 | 1.0 | 5.0 | 0.00 | 0.00 | 0.00 | 62 | 1016.8 |
| 20260502220503 | 54 | 328 | 1.0 | 5.0 | 0.00 | 0.00 | 0.00 | 60 | 1016.7 |
| 20260502220003 | 54 | 344 | 0.0 | 4.0 | 0.00 | 0.00 | 0.00 | 63 | 1016.7 |
| 20260502215503 | 52 | 0 | 0.0 | 0.0 | 0.00 | 0.00 | 0.00 | 68 | 1016.7 |